sensor_id;sensor_type;location;lat;lon;timestamp;temperature;humidity
67598;DHT22;62026;39.230;9.122;2022-08-16T00:00:38;29.70;63.00
67598;DHT22;62026;39.230;9.122;2022-08-16T00:03:06;29.80;62.70
67598;DHT22;62026;39.230;9.122;2022-08-16T00:05:34;29.80;62.80
67598;DHT22;62026;39.230;9.122;2022-08-16T00:08:00;29.70;63.40
67598;DHT22;62026;39.230;9.122;2022-08-16T00:10:29;29.60;63.60
67598;DHT22;62026;39.230;9.122;2022-08-16T00:12:59;29.60;63.50
67598;DHT22;62026;39.230;9.122;2022-08-16T00:15:32;29.50;63.60
67598;DHT22;62026;39.230;9.122;2022-08-16T00:18:02;29.40;63.90
67598;DHT22;62026;39.230;9.122;2022-08-16T00:20:30;29.50;63.50
67598;DHT22;62026;39.230;9.122;2022-08-16T00:22:57;29.60;63.30
67598;DHT22;62026;39.230;9.122;2022-08-16T00:25:24;29.70;63.10
67598;DHT22;62026;39.230;9.122;2022-08-16T00:27:51;29.70;63.30
67598;DHT22;62026;39.230;9.122;2022-08-16T00:30:20;29.50;63.70
67598;DHT22;62026;39.230;9.122;2022-08-16T00:32:50;29.50;63.60
67598;DHT22;62026;39.230;9.122;2022-08-16T00:35:27;29.60;63.50
67598;DHT22;62026;39.230;9.122;2022-08-16T00:37:55;29.60;63.50
67598;DHT22;62026;39.230;9.122;2022-08-16T00:40:39;29.60;63.30
67598;DHT22;62026;39.230;9.122;2022-08-16T00:43:17;29.60;63.10
67598;DHT22;62026;39.230;9.122;2022-08-16T00:48:57;29.50;63.70
67598;DHT22;62026;39.230;9.122;2022-08-16T00:51:24;29.40;64.10
67598;DHT22;62026;39.230;9.122;2022-08-16T00:53:53;29.40;64.20
67598;DHT22;62026;39.230;9.122;2022-08-16T00:56:26;29.30;64.40
67598;DHT22;62026;39.230;9.122;2022-08-16T00:58:54;29.30;64.50
67598;DHT22;62026;39.230;9.122;2022-08-16T01:01:21;29.40;64.30
67598;DHT22;62026;39.230;9.122;2022-08-16T01:03:50;29.30;64.50
67598;DHT22;62026;39.230;9.122;2022-08-16T01:06:19;29.40;64.40
67598;DHT22;62026;39.230;9.122;2022-08-16T01:08:49;29.40;64.40
67598;DHT22;62026;39.230;9.122;2022-08-16T01:11:18;29.40;64.40
67598;DHT22;62026;39.230;9.122;2022-08-16T01:13:45;29.40;64.50
67598;DHT22;62026;39.230;9.122;2022-08-16T01:16:16;29.40;64.60
67598;DHT22;62026;39.230;9.122;2022-08-16T01:18:50;29.40;64.50
67598;DHT22;62026;39.230;9.122;2022-08-16T01:27:42;29.40;64.90
67598;DHT22;62026;39.230;9.122;2022-08-16T01:30:24;29.40;65.00
67598;DHT22;62026;39.230;9.122;2022-08-16T01:32:56;29.30;64.90
67598;DHT22;62026;39.230;9.122;2022-08-16T01:35:33;29.30;65.00
67598;DHT22;62026;39.230;9.122;2022-08-16T01:41:05;29.30;65.10
67598;DHT22;62026;39.230;9.122;2022-08-16T01:43:38;29.30;64.90
67598;DHT22;62026;39.230;9.122;2022-08-16T01:49:12;29.30;64.70
67598;DHT22;62026;39.230;9.122;2022-08-16T01:51:44;29.30;64.80
67598;DHT22;62026;39.230;9.122;2022-08-16T01:54:17;29.30;64.80
67598;DHT22;62026;39.230;9.122;2022-08-16T01:56:50;29.30;64.70
67598;DHT22;62026;39.230;9.122;2022-08-16T01:59:19;29.20;64.90
67598;DHT22;62026;39.230;9.122;2022-08-16T02:01:48;29.20;64.80
67598;DHT22;62026;39.230;9.122;2022-08-16T02:04:17;29.30;64.80
67598;DHT22;62026;39.230;9.122;2022-08-16T02:06:44;29.30;64.70
67598;DHT22;62026;39.230;9.122;2022-08-16T02:09:12;29.30;64.40
67598;DHT22;62026;39.230;9.122;2022-08-16T02:11:45;29.30;64.40
67598;DHT22;62026;39.230;9.122;2022-08-16T02:14:16;29.40;64.60
67598;DHT22;62026;39.230;9.122;2022-08-16T02:16:42;29.40;64.50
67598;DHT22;62026;39.230;9.122;2022-08-16T02:19:10;29.40;64.30
67598;DHT22;62026;39.230;9.122;2022-08-16T02:21:37;29.40;64.40
67598;DHT22;62026;39.230;9.122;2022-08-16T02:24:04;29.40;64.40
67598;DHT22;62026;39.230;9.122;2022-08-16T02:26:31;29.40;64.40
67598;DHT22;62026;39.230;9.122;2022-08-16T02:28:57;29.40;64.80
67598;DHT22;62026;39.230;9.122;2022-08-16T02:31:23;29.40;64.90
67598;DHT22;62026;39.230;9.122;2022-08-16T02:33:49;29.40;65.00
67598;DHT22;62026;39.230;9.122;2022-08-16T02:36:27;29.40;64.70
67598;DHT22;62026;39.230;9.122;2022-08-16T02:38:53;29.40;65.30
67598;DHT22;62026;39.230;9.122;2022-08-16T02:41:19;29.40;65.30
67598;DHT22;62026;39.230;9.122;2022-08-16T02:43:45;29.40;65.50
67598;DHT22;62026;39.230;9.122;2022-08-16T02:46:12;29.40;65.40
67598;DHT22;62026;39.230;9.122;2022-08-16T02:48:38;29.40;65.60
67598;DHT22;62026;39.230;9.122;2022-08-16T02:51:07;29.30;66.20
67598;DHT22;62026;39.230;9.122;2022-08-16T02:53:36;29.30;66.80
67598;DHT22;62026;39.230;9.122;2022-08-16T02:56:05;29.30;67.20
67598;DHT22;62026;39.230;9.122;2022-08-16T02:58:32;29.20;67.30
67598;DHT22;62026;39.230;9.122;2022-08-16T03:00:58;29.20;67.30
67598;DHT22;62026;39.230;9.122;2022-08-16T03:03:27;29.20;67.20
67598;DHT22;62026;39.230;9.122;2022-08-16T03:05:53;29.20;67.00
67598;DHT22;62026;39.230;9.122;2022-08-16T03:08:22;29.20;67.10
67598;DHT22;62026;39.230;9.122;2022-08-16T03:10:49;29.10;67.00
67598;DHT22;62026;39.230;9.122;2022-08-16T03:13:16;29.20;66.90
67598;DHT22;62026;39.230;9.122;2022-08-16T03:15:44;29.20;67.00
67598;DHT22;62026;39.230;9.122;2022-08-16T03:18:10;29.10;67.40
67598;DHT22;62026;39.230;9.122;2022-08-16T03:20:37;29.00;67.60
67598;DHT22;62026;39.230;9.122;2022-08-16T03:23:08;29.00;67.80
67598;DHT22;62026;39.230;9.122;2022-08-16T03:25:34;29.00;67.90
67598;DHT22;62026;39.230;9.122;2022-08-16T03:28:01;28.90;67.90
67598;DHT22;62026;39.230;9.122;2022-08-16T03:30:30;28.90;68.10
67598;DHT22;62026;39.230;9.122;2022-08-16T03:33:01;29.00;67.90
67598;DHT22;62026;39.230;9.122;2022-08-16T03:35:34;29.00;67.60
67598;DHT22;62026;39.230;9.122;2022-08-16T03:38:27;29.00;67.40
67598;DHT22;62026;39.230;9.122;2022-08-16T03:40:56;29.00;67.00
67598;DHT22;62026;39.230;9.122;2022-08-16T03:43:26;29.00;66.80
67598;DHT22;62026;39.230;9.122;2022-08-16T03:45:54;29.10;66.90
67598;DHT22;62026;39.230;9.122;2022-08-16T03:48:30;29.00;66.80
67598;DHT22;62026;39.230;9.122;2022-08-16T03:51:08;29.00;66.90
67598;DHT22;62026;39.230;9.122;2022-08-16T03:53:42;29.00;66.80
67598;DHT22;62026;39.230;9.122;2022-08-16T03:56:09;29.00;66.30
67598;DHT22;62026;39.230;9.122;2022-08-16T03:58:36;29.00;66.20
67598;DHT22;62026;39.230;9.122;2022-08-16T04:01:05;29.00;66.10
67598;DHT22;62026;39.230;9.122;2022-08-16T04:03:32;29.00;66.30
67598;DHT22;62026;39.230;9.122;2022-08-16T04:05:58;29.00;66.10
67598;DHT22;62026;39.230;9.122;2022-08-16T04:08:25;29.00;66.60
67598;DHT22;62026;39.230;9.122;2022-08-16T04:10:55;29.00;66.60
67598;DHT22;62026;39.230;9.122;2022-08-16T04:13:23;29.00;67.00
67598;DHT22;62026;39.230;9.122;2022-08-16T04:15:50;29.00;66.90
67598;DHT22;62026;39.230;9.122;2022-08-16T04:18:21;29.00;67.10
67598;DHT22;62026;39.230;9.122;2022-08-16T04:20:51;29.00;67.10
67598;DHT22;62026;39.230;9.122;2022-08-16T04:23:23;29.00;67.40
67598;DHT22;62026;39.230;9.122;2022-08-16T04:25:49;28.90;67.50
67598;DHT22;62026;39.230;9.122;2022-08-16T04:28:16;28.90;67.50
67598;DHT22;62026;39.230;9.122;2022-08-16T04:30:42;28.90;67.70
67598;DHT22;62026;39.230;9.122;2022-08-16T04:33:09;28.90;67.90
67598;DHT22;62026;39.230;9.122;2022-08-16T04:35:38;28.80;68.10
67598;DHT22;62026;39.230;9.122;2022-08-16T04:38:06;28.80;68.00
67598;DHT22;62026;39.230;9.122;2022-08-16T04:40:39;28.80;68.10
67598;DHT22;62026;39.230;9.122;2022-08-16T04:43:06;28.80;68.10
67598;DHT22;62026;39.230;9.122;2022-08-16T04:45:32;28.70;67.60
67598;DHT22;62026;39.230;9.122;2022-08-16T04:47:59;28.70;67.80
67598;DHT22;62026;39.230;9.122;2022-08-16T04:50:31;28.70;67.50
67598;DHT22;62026;39.230;9.122;2022-08-16T04:53:08;28.70;68.40
67598;DHT22;62026;39.230;9.122;2022-08-16T04:55:37;28.70;68.40
67598;DHT22;62026;39.230;9.122;2022-08-16T04:58:04;28.70;68.40
67598;DHT22;62026;39.230;9.122;2022-08-16T05:00:33;28.70;68.40
67598;DHT22;62026;39.230;9.122;2022-08-16T05:03:09;28.70;68.40
67598;DHT22;62026;39.230;9.122;2022-08-16T05:05:45;28.70;68.40
67598;DHT22;62026;39.230;9.122;2022-08-16T05:08:16;28.70;68.30
67598;DHT22;62026;39.230;9.122;2022-08-16T05:10:46;28.70;67.90
67598;DHT22;62026;39.230;9.122;2022-08-16T05:13:13;28.60;67.90
67598;DHT22;62026;39.230;9.122;2022-08-16T05:15:39;28.70;68.00
67598;DHT22;62026;39.230;9.122;2022-08-16T05:18:05;28.70;68.20
67598;DHT22;62026;39.230;9.122;2022-08-16T05:20:39;28.70;68.20
67598;DHT22;62026;39.230;9.122;2022-08-16T05:23:05;28.70;68.00
67598;DHT22;62026;39.230;9.122;2022-08-16T05:25:33;28.70;68.20
67598;DHT22;62026;39.230;9.122;2022-08-16T05:27:58;28.70;68.70
67598;DHT22;62026;39.230;9.122;2022-08-16T05:30:25;28.70;68.70
67598;DHT22;62026;39.230;9.122;2022-08-16T05:32:51;28.70;68.70
67598;DHT22;62026;39.230;9.122;2022-08-16T05:35:18;28.70;68.90
67598;DHT22;62026;39.230;9.122;2022-08-16T05:38:10;28.70;68.70
67598;DHT22;62026;39.230;9.122;2022-08-16T05:40:36;28.70;68.70
67598;DHT22;62026;39.230;9.122;2022-08-16T05:43:03;28.70;68.20
67598;DHT22;62026;39.230;9.122;2022-08-16T05:45:30;28.80;67.80
67598;DHT22;62026;39.230;9.122;2022-08-16T05:47:59;28.90;67.30
67598;DHT22;62026;39.230;9.122;2022-08-16T05:50:30;28.90;67.10
67598;DHT22;62026;39.230;9.122;2022-08-16T05:52:56;29.00;67.40
67598;DHT22;62026;39.230;9.122;2022-08-16T05:55:23;28.90;67.40
67598;DHT22;62026;39.230;9.122;2022-08-16T05:57:49;29.00;67.30
67598;DHT22;62026;39.230;9.122;2022-08-16T06:00:16;29.00;67.40
67598;DHT22;62026;39.230;9.122;2022-08-16T06:02:46;29.10;67.20
67598;DHT22;62026;39.230;9.122;2022-08-16T06:05:35;29.10;67.50
67598;DHT22;62026;39.230;9.122;2022-08-16T06:08:01;29.00;67.50
67598;DHT22;62026;39.230;9.122;2022-08-16T06:10:31;29.10;67.30
67598;DHT22;62026;39.230;9.122;2022-08-16T06:12:57;29.20;66.90
67598;DHT22;62026;39.230;9.122;2022-08-16T06:15:24;29.20;67.10
67598;DHT22;62026;39.230;9.122;2022-08-16T06:17:50;29.30;66.60
67598;DHT22;62026;39.230;9.122;2022-08-16T06:20:25;29.40;66.40
67598;DHT22;62026;39.230;9.122;2022-08-16T06:22:56;29.50;66.40
67598;DHT22;62026;39.230;9.122;2022-08-16T06:25:26;29.50;66.30
67598;DHT22;62026;39.230;9.122;2022-08-16T06:27:54;29.60;66.10
67598;DHT22;62026;39.230;9.122;2022-08-16T06:30:21;29.60;66.10
67598;DHT22;62026;39.230;9.122;2022-08-16T06:32:48;29.60;66.10
67598;DHT22;62026;39.230;9.122;2022-08-16T06:35:17;29.70;66.10
67598;DHT22;62026;39.230;9.122;2022-08-16T06:37:46;29.70;66.20
67598;DHT22;62026;39.230;9.122;2022-08-16T06:40:12;29.80;66.20
67598;DHT22;62026;39.230;9.122;2022-08-16T06:42:43;29.90;66.10
67598;DHT22;62026;39.230;9.122;2022-08-16T06:45:29;30.00;65.90
67598;DHT22;62026;39.230;9.122;2022-08-16T06:48:04;30.00;65.60
67598;DHT22;62026;39.230;9.122;2022-08-16T06:50:31;30.10;65.20
67598;DHT22;62026;39.230;9.122;2022-08-16T06:53:02;30.20;65.00
67598;DHT22;62026;39.230;9.122;2022-08-16T06:55:29;30.30;64.70
67598;DHT22;62026;39.230;9.122;2022-08-16T06:57:56;30.30;64.60
67598;DHT22;62026;39.230;9.122;2022-08-16T07:00:23;30.40;64.50
67598;DHT22;62026;39.230;9.122;2022-08-16T07:02:59;30.50;64.30
67598;DHT22;62026;39.230;9.122;2022-08-16T07:05:26;30.50;63.90
67598;DHT22;62026;39.230;9.122;2022-08-16T07:08:23;30.60;63.40
67598;DHT22;62026;39.230;9.122;2022-08-16T07:10:51;30.60;63.20
67598;DHT22;62026;39.230;9.122;2022-08-16T07:13:18;30.70;63.20
67598;DHT22;62026;39.230;9.122;2022-08-16T07:15:45;30.80;63.00
67598;DHT22;62026;39.230;9.122;2022-08-16T07:18:17;30.90;62.50
67598;DHT22;62026;39.230;9.122;2022-08-16T07:20:47;31.00;62.60
67598;DHT22;62026;39.230;9.122;2022-08-16T07:23:16;31.10;62.30
67598;DHT22;62026;39.230;9.122;2022-08-16T07:25:52;31.30;61.50
67598;DHT22;62026;39.230;9.122;2022-08-16T07:28:19;31.40;61.30
67598;DHT22;62026;39.230;9.122;2022-08-16T07:30:46;31.40;61.20
67598;DHT22;62026;39.230;9.122;2022-08-16T07:33:39;31.40;60.80
67598;DHT22;62026;39.230;9.122;2022-08-16T07:36:07;31.40;60.20
67598;DHT22;62026;39.230;9.122;2022-08-16T07:38:38;31.40;60.40
67598;DHT22;62026;39.230;9.122;2022-08-16T07:41:04;31.40;59.60
67598;DHT22;62026;39.230;9.122;2022-08-16T07:43:33;31.30;59.30
67598;DHT22;62026;39.230;9.122;2022-08-16T07:46:02;31.40;58.90
67598;DHT22;62026;39.230;9.122;2022-08-16T07:48:32;31.60;58.00
67598;DHT22;62026;39.230;9.122;2022-08-16T07:50:59;31.60;58.00
67598;DHT22;62026;39.230;9.122;2022-08-16T07:53:31;31.50;58.50
67598;DHT22;62026;39.230;9.122;2022-08-16T07:55:59;31.60;58.40
67598;DHT22;62026;39.230;9.122;2022-08-16T07:58:31;31.70;58.20
67598;DHT22;62026;39.230;9.122;2022-08-16T08:00:59;31.90;58.00
67598;DHT22;62026;39.230;9.122;2022-08-16T08:03:27;31.90;57.10
67598;DHT22;62026;39.230;9.122;2022-08-16T08:05:55;32.00;56.90
67598;DHT22;62026;39.230;9.122;2022-08-16T08:08:21;32.00;56.70
67598;DHT22;62026;39.230;9.122;2022-08-16T08:10:48;31.90;57.60
67598;DHT22;62026;39.230;9.122;2022-08-16T08:13:16;31.80;57.80
67598;DHT22;62026;39.230;9.122;2022-08-16T08:15:42;31.70;58.00
67598;DHT22;62026;39.230;9.122;2022-08-16T08:18:10;31.60;58.50
67598;DHT22;62026;39.230;9.122;2022-08-16T08:20:38;32.10;57.80
67598;DHT22;62026;39.230;9.122;2022-08-16T08:23:12;32.50;57.10
67598;DHT22;62026;39.230;9.122;2022-08-16T08:25:42;32.80;56.20
67598;DHT22;62026;39.230;9.122;2022-08-16T08:28:10;32.90;55.70
67598;DHT22;62026;39.230;9.122;2022-08-16T08:30:40;32.80;55.60
67598;DHT22;62026;39.230;9.122;2022-08-16T08:33:07;32.90;55.40
67598;DHT22;62026;39.230;9.122;2022-08-16T08:35:38;32.90;55.00
67598;DHT22;62026;39.230;9.122;2022-08-16T08:38:06;32.90;54.70
67598;DHT22;62026;39.230;9.122;2022-08-16T08:40:34;32.70;54.80
67598;DHT22;62026;39.230;9.122;2022-08-16T08:43:01;32.70;55.20
67598;DHT22;62026;39.230;9.122;2022-08-16T08:45:42;32.80;54.70
67598;DHT22;62026;39.230;9.122;2022-08-16T08:48:08;33.10;54.20
67598;DHT22;62026;39.230;9.122;2022-08-16T08:50:35;33.50;53.50
67598;DHT22;62026;39.230;9.122;2022-08-16T08:53:03;33.80;52.90
67598;DHT22;62026;39.230;9.122;2022-08-16T08:55:29;33.90;52.10
67598;DHT22;62026;39.230;9.122;2022-08-16T08:57:56;33.80;52.00
67598;DHT22;62026;39.230;9.122;2022-08-16T09:00:46;33.90;51.60
67598;DHT22;62026;39.230;9.122;2022-08-16T09:03:12;33.80;51.90
67598;DHT22;62026;39.230;9.122;2022-08-16T09:05:42;33.60;51.80
67598;DHT22;62026;39.230;9.122;2022-08-16T09:08:10;33.70;51.40
67598;DHT22;62026;39.230;9.122;2022-08-16T09:10:59;33.30;52.20
67598;DHT22;62026;39.230;9.122;2022-08-16T09:13:26;33.20;52.60
67598;DHT22;62026;39.230;9.122;2022-08-16T09:15:54;33.20;52.60
67598;DHT22;62026;39.230;9.122;2022-08-16T09:18:21;33.50;52.30
67598;DHT22;62026;39.230;9.122;2022-08-16T09:20:49;33.60;52.10
67598;DHT22;62026;39.230;9.122;2022-08-16T09:23:17;33.30;53.30
67598;DHT22;62026;39.230;9.122;2022-08-16T09:25:44;33.20;53.80
67598;DHT22;62026;39.230;9.122;2022-08-16T09:28:14;33.70;53.60
67598;DHT22;62026;39.230;9.122;2022-08-16T09:30:46;34.00;53.60
67598;DHT22;62026;39.230;9.122;2022-08-16T09:33:14;34.10;53.60
67598;DHT22;62026;39.230;9.122;2022-08-16T09:35:45;34.10;53.40
67598;DHT22;62026;39.230;9.122;2022-08-16T09:38:13;33.60;54.40
67598;DHT22;62026;39.230;9.122;2022-08-16T09:40:44;33.60;54.90
67598;DHT22;62026;39.230;9.122;2022-08-16T09:43:15;33.50;55.20
67598;DHT22;62026;39.230;9.122;2022-08-16T09:45:43;33.20;55.80
67598;DHT22;62026;39.230;9.122;2022-08-16T09:48:10;32.90;56.10
67598;DHT22;62026;39.230;9.122;2022-08-16T09:50:38;32.90;56.40
67598;DHT22;62026;39.230;9.122;2022-08-16T09:53:15;33.10;55.70
67598;DHT22;62026;39.230;9.122;2022-08-16T09:55:46;33.00;55.50
67598;DHT22;62026;39.230;9.122;2022-08-16T09:58:13;33.00;55.30
67598;DHT22;62026;39.230;9.122;2022-08-16T10:00:39;33.00;54.80
67598;DHT22;62026;39.230;9.122;2022-08-16T10:03:05;33.30;54.60
67598;DHT22;62026;39.230;9.122;2022-08-16T10:05:32;33.20;54.10
67598;DHT22;62026;39.230;9.122;2022-08-16T10:08:03;32.80;54.20
67598;DHT22;62026;39.230;9.122;2022-08-16T10:10:30;32.80;54.50
67598;DHT22;62026;39.230;9.122;2022-08-16T10:12:57;32.90;53.40
67598;DHT22;62026;39.230;9.122;2022-08-16T10:15:45;33.00;53.30
67598;DHT22;62026;39.230;9.122;2022-08-16T10:18:13;33.00;53.00
67598;DHT22;62026;39.230;9.122;2022-08-16T10:20:42;33.00;53.00
67598;DHT22;62026;39.230;9.122;2022-08-16T10:23:14;32.90;53.60
67598;DHT22;62026;39.230;9.122;2022-08-16T10:25:42;32.70;53.50
67598;DHT22;62026;39.230;9.122;2022-08-16T10:28:10;32.70;53.70
67598;DHT22;62026;39.230;9.122;2022-08-16T10:30:38;32.50;53.00
67598;DHT22;62026;39.230;9.122;2022-08-16T10:33:09;32.30;54.60
67598;DHT22;62026;39.230;9.122;2022-08-16T10:35:36;32.30;54.50
67598;DHT22;62026;39.230;9.122;2022-08-16T10:38:03;32.40;55.30
67598;DHT22;62026;39.230;9.122;2022-08-16T10:40:29;32.40;55.50
67598;DHT22;62026;39.230;9.122;2022-08-16T10:42:56;32.40;54.90
67598;DHT22;62026;39.230;9.122;2022-08-16T10:45:28;32.30;55.30
67598;DHT22;62026;39.230;9.122;2022-08-16T10:47:55;32.00;55.60
67598;DHT22;62026;39.230;9.122;2022-08-16T10:50:22;31.90;55.20
67598;DHT22;62026;39.230;9.122;2022-08-16T10:52:48;31.80;56.70
67598;DHT22;62026;39.230;9.122;2022-08-16T10:55:14;31.80;58.60
67598;DHT22;62026;39.230;9.122;2022-08-16T10:57:41;31.70;58.00
67598;DHT22;62026;39.230;9.122;2022-08-16T11:00:09;31.60;58.60
67598;DHT22;62026;39.230;9.122;2022-08-16T11:02:41;31.70;58.70
67598;DHT22;62026;39.230;9.122;2022-08-16T11:05:11;31.60;59.00
67598;DHT22;62026;39.230;9.122;2022-08-16T11:07:42;31.70;59.30
67598;DHT22;62026;39.230;9.122;2022-08-16T11:10:12;31.70;59.20
67598;DHT22;62026;39.230;9.122;2022-08-16T11:12:40;31.70;58.60
67598;DHT22;62026;39.230;9.122;2022-08-16T11:15:07;31.70;58.30
67598;DHT22;62026;39.230;9.122;2022-08-16T11:17:34;31.80;58.20
67598;DHT22;62026;39.230;9.122;2022-08-16T11:20:02;31.80;57.60
67598;DHT22;62026;39.230;9.122;2022-08-16T11:22:29;31.80;57.10
67598;DHT22;62026;39.230;9.122;2022-08-16T11:24:55;31.70;56.00
67598;DHT22;62026;39.230;9.122;2022-08-16T11:27:21;31.60;56.40
67598;DHT22;62026;39.230;9.122;2022-08-16T11:29:53;31.60;57.80
67598;DHT22;62026;39.230;9.122;2022-08-16T11:32:23;31.70;58.40
67598;DHT22;62026;39.230;9.122;2022-08-16T11:34:51;31.60;60.30
67598;DHT22;62026;39.230;9.122;2022-08-16T11:37:17;31.60;61.50
67598;DHT22;62026;39.230;9.122;2022-08-16T11:39:44;31.50;62.30
67598;DHT22;62026;39.230;9.122;2022-08-16T11:42:10;31.50;62.30
67598;DHT22;62026;39.230;9.122;2022-08-16T11:44:36;31.50;62.70
67598;DHT22;62026;39.230;9.122;2022-08-16T11:47:02;31.50;63.40
67598;DHT22;62026;39.230;9.122;2022-08-16T11:49:28;31.40;64.50
67598;DHT22;62026;39.230;9.122;2022-08-16T11:51:54;31.40;65.00
67598;DHT22;62026;39.230;9.122;2022-08-16T11:54:20;31.40;64.90
67598;DHT22;62026;39.230;9.122;2022-08-16T11:56:46;31.40;65.10
67598;DHT22;62026;39.230;9.122;2022-08-16T11:59:12;31.30;65.60
67598;DHT22;62026;39.230;9.122;2022-08-16T12:01:38;31.30;65.60
67598;DHT22;62026;39.230;9.122;2022-08-16T12:04:04;31.30;65.90
67598;DHT22;62026;39.230;9.122;2022-08-16T12:06:30;31.30;65.80
67598;DHT22;62026;39.230;9.122;2022-08-16T12:08:58;31.20;65.90
67598;DHT22;62026;39.230;9.122;2022-08-16T12:11:25;31.20;66.20
67598;DHT22;62026;39.230;9.122;2022-08-16T12:13:52;31.20;66.40
67598;DHT22;62026;39.230;9.122;2022-08-16T12:16:19;31.20;66.40
67598;DHT22;62026;39.230;9.122;2022-08-16T12:18:45;31.20;66.50
67598;DHT22;62026;39.230;9.122;2022-08-16T12:21:11;31.30;66.20
67598;DHT22;62026;39.230;9.122;2022-08-16T12:23:38;31.30;66.60
67598;DHT22;62026;39.230;9.122;2022-08-16T12:26:05;31.40;66.10
67598;DHT22;62026;39.230;9.122;2022-08-16T12:28:31;31.30;66.10
67598;DHT22;62026;39.230;9.122;2022-08-16T12:30:57;31.30;66.40
67598;DHT22;62026;39.230;9.122;2022-08-16T12:33:23;31.30;66.60
67598;DHT22;62026;39.230;9.122;2022-08-16T12:35:49;31.30;66.20
67598;DHT22;62026;39.230;9.122;2022-08-16T12:38:16;31.30;66.10
67598;DHT22;62026;39.230;9.122;2022-08-16T12:40:45;31.30;66.10
67598;DHT22;62026;39.230;9.122;2022-08-16T12:43:14;31.30;65.90
67598;DHT22;62026;39.230;9.122;2022-08-16T12:45:45;31.20;66.30
67598;DHT22;62026;39.230;9.122;2022-08-16T12:48:16;31.30;66.00
67598;DHT22;62026;39.230;9.122;2022-08-16T12:51:08;31.30;65.90
67598;DHT22;62026;39.230;9.122;2022-08-16T12:53:36;31.20;66.20
67598;DHT22;62026;39.230;9.122;2022-08-16T12:56:03;31.30;66.70
67598;DHT22;62026;39.230;9.122;2022-08-16T12:58:30;31.30;66.20
67598;DHT22;62026;39.230;9.122;2022-08-16T13:00:58;31.30;66.80
67598;DHT22;62026;39.230;9.122;2022-08-16T13:03:25;31.30;66.40
67598;DHT22;62026;39.230;9.122;2022-08-16T13:05:53;31.30;66.70
67598;DHT22;62026;39.230;9.122;2022-08-16T13:08:20;31.30;66.60
67598;DHT22;62026;39.230;9.122;2022-08-16T13:10:48;31.30;66.90
67598;DHT22;62026;39.230;9.122;2022-08-16T13:13:18;31.30;66.40
67598;DHT22;62026;39.230;9.122;2022-08-16T13:15:55;31.30;66.20
67598;DHT22;62026;39.230;9.122;2022-08-16T13:18:24;31.30;66.80
67598;DHT22;62026;39.230;9.122;2022-08-16T13:20:52;31.40;66.30
67598;DHT22;62026;39.230;9.122;2022-08-16T13:23:19;31.30;66.30
67598;DHT22;62026;39.230;9.122;2022-08-16T13:25:47;31.30;65.80
67598;DHT22;62026;39.230;9.122;2022-08-16T13:28:15;31.40;66.20
67598;DHT22;62026;39.230;9.122;2022-08-16T13:30:48;31.50;66.10
67598;DHT22;62026;39.230;9.122;2022-08-16T13:33:24;31.50;65.90
67598;DHT22;62026;39.230;9.122;2022-08-16T13:35:59;31.50;65.80
67598;DHT22;62026;39.230;9.122;2022-08-16T13:38:28;31.60;65.80
67598;DHT22;62026;39.230;9.122;2022-08-16T13:40:55;31.60;65.30
67598;DHT22;62026;39.230;9.122;2022-08-16T13:43:24;31.60;65.70
67598;DHT22;62026;39.230;9.122;2022-08-16T13:45:51;31.60;65.10
67598;DHT22;62026;39.230;9.122;2022-08-16T13:48:17;31.50;64.20
67598;DHT22;62026;39.230;9.122;2022-08-16T13:50:43;31.60;63.80
67598;DHT22;62026;39.230;9.122;2022-08-16T13:53:09;31.70;63.10
67598;DHT22;62026;39.230;9.122;2022-08-16T13:55:35;31.70;63.70
67598;DHT22;62026;39.230;9.122;2022-08-16T13:58:02;31.70;63.40
67598;DHT22;62026;39.230;9.122;2022-08-16T14:00:28;31.60;62.90
67598;DHT22;62026;39.230;9.122;2022-08-16T14:02:54;31.60;64.10
67598;DHT22;62026;39.230;9.122;2022-08-16T14:05:21;31.50;65.50
67598;DHT22;62026;39.230;9.122;2022-08-16T14:07:47;31.40;65.70
67598;DHT22;62026;39.230;9.122;2022-08-16T14:10:13;31.40;64.90
67598;DHT22;62026;39.230;9.122;2022-08-16T14:12:40;31.50;65.60
67598;DHT22;62026;39.230;9.122;2022-08-16T14:15:10;31.60;64.70
67598;DHT22;62026;39.230;9.122;2022-08-16T14:17:38;31.70;63.30
67598;DHT22;62026;39.230;9.122;2022-08-16T14:20:05;31.70;61.80
67598;DHT22;62026;39.230;9.122;2022-08-16T14:22:35;31.70;61.70
67598;DHT22;62026;39.230;9.122;2022-08-16T14:25:08;31.70;61.50
67598;DHT22;62026;39.230;9.122;2022-08-16T14:27:37;31.70;61.10
67598;DHT22;62026;39.230;9.122;2022-08-16T14:30:04;31.80;58.60
67598;DHT22;62026;39.230;9.122;2022-08-16T14:32:32;31.70;56.60
67598;DHT22;62026;39.230;9.122;2022-08-16T14:35:00;31.70;56.60
67598;DHT22;62026;39.230;9.122;2022-08-16T14:37:28;31.60;57.00
67598;DHT22;62026;39.230;9.122;2022-08-16T14:39:54;31.70;58.50
67598;DHT22;62026;39.230;9.122;2022-08-16T14:42:22;31.60;58.30
67598;DHT22;62026;39.230;9.122;2022-08-16T14:44:50;31.60;58.60
67598;DHT22;62026;39.230;9.122;2022-08-16T14:47:18;31.60;60.60
67598;DHT22;62026;39.230;9.122;2022-08-16T14:49:45;31.60;60.90
67598;DHT22;62026;39.230;9.122;2022-08-16T14:52:17;31.40;62.70
67598;DHT22;62026;39.230;9.122;2022-08-16T14:54:49;31.30;62.60
67598;DHT22;62026;39.230;9.122;2022-08-16T14:57:18;31.30;62.80
67598;DHT22;62026;39.230;9.122;2022-08-16T14:59:44;31.20;64.00
67598;DHT22;62026;39.230;9.122;2022-08-16T15:02:14;31.20;64.20
67598;DHT22;62026;39.230;9.122;2022-08-16T15:04:42;31.20;64.20
67598;DHT22;62026;39.230;9.122;2022-08-16T15:07:09;31.20;64.60
67598;DHT22;62026;39.230;9.122;2022-08-16T15:09:39;31.20;64.70
67598;DHT22;62026;39.230;9.122;2022-08-16T15:12:16;31.20;65.30
67598;DHT22;62026;39.230;9.122;2022-08-16T15:14:46;31.30;64.60
67598;DHT22;62026;39.230;9.122;2022-08-16T15:17:18;31.40;64.60
67598;DHT22;62026;39.230;9.122;2022-08-16T15:19:46;31.50;64.60
67598;DHT22;62026;39.230;9.122;2022-08-16T15:22:32;31.50;63.50
67598;DHT22;62026;39.230;9.122;2022-08-16T15:25:04;31.50;65.40
67598;DHT22;62026;39.230;9.122;2022-08-16T15:27:34;31.50;64.90
67598;DHT22;62026;39.230;9.122;2022-08-16T15:30:03;31.40;64.10
67598;DHT22;62026;39.230;9.122;2022-08-16T15:32:29;31.30;63.80
67598;DHT22;62026;39.230;9.122;2022-08-16T15:34:57;31.20;63.70
67598;DHT22;62026;39.230;9.122;2022-08-16T15:37:23;31.20;63.40
67598;DHT22;62026;39.230;9.122;2022-08-16T15:39:50;31.20;62.80
67598;DHT22;62026;39.230;9.122;2022-08-16T15:42:16;31.20;63.30
67598;DHT22;62026;39.230;9.122;2022-08-16T15:44:43;31.20;64.10
67598;DHT22;62026;39.230;9.122;2022-08-16T15:47:12;31.30;64.00
67598;DHT22;62026;39.230;9.122;2022-08-16T15:49:41;31.20;64.10
67598;DHT22;62026;39.230;9.122;2022-08-16T15:54:45;31.30;64.70
67598;DHT22;62026;39.230;9.122;2022-08-16T15:57:12;31.20;64.80
67598;DHT22;62026;39.230;9.122;2022-08-16T15:59:40;31.30;64.30